createdAt,value
2019-02-02T00:01:39.274Z,21.87
2019-02-02T00:04:09.380Z,24.63
2019-02-02T00:06:40.947Z,26.93
2019-02-02T00:09:11.575Z,21.97
2019-02-02T00:11:44.235Z,18.97
2019-02-02T00:14:14.266Z,28.47
2019-02-02T00:16:44.578Z,21.97
2019-02-02T00:19:17.609Z,21.03
2019-02-02T00:21:47.599Z,25.50
2019-02-02T00:24:18.896Z,25.37
2019-02-02T00:26:48.833Z,29.17
2019-02-02T00:29:18.674Z,26.33
2019-02-02T00:31:49.363Z,31.20
2019-02-02T00:34:19.136Z,25.80
2019-02-02T00:36:49.028Z,23.57
2019-02-02T00:39:19.021Z,21.10
2019-02-02T00:41:49.408Z,24.30
2019-02-02T00:44:19.345Z,37.17
2019-02-02T00:46:49.740Z,24.13
2019-02-02T00:49:20.095Z,27.43
2019-02-02T00:51:49.998Z,24.40
2019-02-02T00:54:20.086Z,21.40
2019-02-02T00:56:50.350Z,21.77
2019-02-02T00:59:20.196Z,26.27
2019-02-02T01:01:50.217Z,21.20
2019-02-02T01:04:50.673Z,21.50
2019-02-02T01:07:21.106Z,21.90
2019-02-02T01:09:50.934Z,21.30
2019-02-02T01:12:21.331Z,19.20
2019-02-02T01:14:51.279Z,17.50
2019-02-02T01:17:21.155Z,35.73
2019-02-02T01:19:51.321Z,24.47
2019-02-02T01:22:21.223Z,23.13
2019-02-02T01:24:51.134Z,24.70
2019-02-02T01:27:20.942Z,23.93
2019-02-02T01:29:51.526Z,43.07
2019-02-02T01:32:21.406Z,29.67
2019-02-02T01:34:52.556Z,21.80
2019-02-02T01:37:22.393Z,22.90
2019-02-02T01:40:31.451Z,24.20
2019-02-02T01:43:01.256Z,30.87
2019-02-02T01:45:31.215Z,37.10
2019-02-02T01:48:01.084Z,24.97
2019-02-02T01:50:31.190Z,21.53
2019-02-02T01:53:01.029Z,34.27
2019-02-02T01:55:35.875Z,28.67
2019-02-02T01:58:15.962Z,28.53
2019-02-02T02:00:39.348Z,18.27
2019-02-02T02:03:09.665Z,24.27
2019-02-02T02:05:39.488Z,37.20
2019-02-02T02:08:10.005Z,21.67
2019-02-02T02:10:40.016Z,22.97
2019-02-02T02:13:10.101Z,26.30
2019-02-02T02:15:40.050Z,28.20
2019-02-02T02:18:09.975Z,23.07
2019-02-02T02:20:40.220Z,22.30
2019-02-02T02:23:10.116Z,23.47
2019-02-02T02:25:39.914Z,24.70
2019-02-02T02:28:10.170Z,25.90
2019-02-02T02:30:40.055Z,21.87
2019-02-02T02:33:09.920Z,21.17
2019-02-02T02:35:41.115Z,26.53
2019-02-02T02:38:10.989Z,31.93
2019-02-02T02:40:40.844Z,27.30
2019-02-02T02:43:10.880Z,26.97
2019-02-02T02:45:40.817Z,29.87
2019-02-02T02:48:13.453Z,28.20
2019-02-02T02:50:43.348Z,23.77
2019-02-02T02:53:13.189Z,23.90
2019-02-02T02:55:43.021Z,27.57
2019-02-02T02:58:13.302Z,29.57
2019-02-02T03:00:43.224Z,31.97
2019-02-02T03:03:16.477Z,29.97
2019-02-02T03:05:49.295Z,26.63
2019-02-02T03:08:23.289Z,26.07
2019-02-02T03:10:53.206Z,23.80
2019-02-02T03:13:23.408Z,23.77
2019-02-02T03:15:53.510Z,20.53
2019-02-02T03:18:23.402Z,23.30
2019-02-02T03:20:54.019Z,32.83
2019-02-02T03:23:24.531Z,26.03
2019-02-02T03:25:54.319Z,34.90
2019-02-02T03:28:24.479Z,35.13
2019-02-02T03:30:57.313Z,30.70
2019-02-02T03:33:27.334Z,37.33
2019-02-02T03:35:57.446Z,28.30
2019-02-02T03:38:27.978Z,29.90
2019-02-02T03:41:00.223Z,32.27
2019-02-02T03:43:30.263Z,35.20
2019-02-02T03:46:00.087Z,29.17
2019-02-02T03:48:29.888Z,37.50
2019-02-02T03:50:59.804Z,34.43
2019-02-02T03:53:30.300Z,29.97
2019-02-02T03:56:00.064Z,32.63
2019-02-02T03:58:29.906Z,27.67
2019-02-02T04:01:13.325Z,28.17
2019-02-02T04:03:43.263Z,25.93
2019-02-02T04:06:13.080Z,27.13
2019-02-02T04:08:43.460Z,26.03
2019-02-02T04:11:13.605Z,31.27
2019-02-02T04:13:43.692Z,24.80
2019-02-02T04:16:13.944Z,25.87
2019-02-02T04:18:44.358Z,23.83
2019-02-02T04:21:14.284Z,27.57
2019-02-02T04:23:44.757Z,22.23
2019-02-02T04:26:14.554Z,29.23
2019-02-02T04:28:44.343Z,28.57
2019-02-02T04:31:17.535Z,29.57
2019-02-02T04:33:47.372Z,23.60
2019-02-02T04:36:17.422Z,27.33
2019-02-02T04:38:48.683Z,25.67
2019-02-02T04:41:19.148Z,26.20
2019-02-02T04:43:48.970Z,31.23
2019-02-02T04:46:18.824Z,34.07
2019-02-02T04:48:48.629Z,30.43
2019-02-02T04:51:18.444Z,31.30
2019-02-02T04:53:48.359Z,27.17
2019-02-02T04:56:18.909Z,35.70
2019-02-02T04:58:48.649Z,28.07
2019-02-02T05:01:18.602Z,37.77
2019-02-02T05:03:49.560Z,30.33
2019-02-02T05:06:20.196Z,33.27
2019-02-02T05:08:50.073Z,23.53
2019-02-02T05:11:20.326Z,31.77
2019-02-02T05:13:50.152Z,34.00
2019-02-02T05:16:20.218Z,27.73
2019-02-02T05:18:50.295Z,22.60
2019-02-02T05:21:20.268Z,35.03
2019-02-02T05:23:50.128Z,27.17
2019-02-02T05:26:20.248Z,22.23
2019-02-02T05:28:51.447Z,26.97
2019-02-02T05:31:21.925Z,24.83
2019-02-02T05:33:53.802Z,30.67
2019-02-02T05:36:23.860Z,27.83
2019-02-02T05:39:00.525Z,30.67
2019-02-02T05:41:58.289Z,27.53
2019-02-02T05:44:28.162Z,33.70
2019-02-02T05:46:58.344Z,34.83
2019-02-02T05:49:28.225Z,29.63
2019-02-02T05:51:58.299Z,30.50
2019-02-02T05:54:30.156Z,43.23
2019-02-02T05:57:10.533Z,34.30
2019-02-02T05:59:52.929Z,29.63
2019-02-02T06:03:00.464Z,30.90
2019-02-02T06:05:41.224Z,36.00
2019-02-02T06:08:13.482Z,35.90
2019-02-02T06:10:43.341Z,23.50
2019-02-02T06:17:20.929Z,26.40
2019-02-02T06:19:51.269Z,40.83
2019-02-02T06:25:24.675Z,24.90
2019-02-02T06:27:55.387Z,25.40
2019-02-02T06:30:25.934Z,37.67
2019-02-02T06:32:57.222Z,35.03
2019-02-02T06:35:27.478Z,33.67
2019-02-02T06:38:01.522Z,41.27
2019-02-02T06:40:31.479Z,34.60
2019-02-02T06:43:02.208Z,44.63
2019-02-02T06:45:34.669Z,50.63
2019-02-02T06:48:05.070Z,42.97
2019-02-02T06:50:36.087Z,41.40
2019-02-02T06:53:12.262Z,33.43
2019-02-02T06:55:42.169Z,45.07
2019-02-02T06:58:12.076Z,41.97
2019-02-02T07:00:46.433Z,38.83
2019-02-02T07:03:16.302Z,40.47
2019-02-02T07:05:46.217Z,40.17
2019-02-02T07:08:16.504Z,41.60
2019-02-02T07:10:46.905Z,36.13
2019-02-02T07:13:20.291Z,44.97
2019-02-02T07:15:59.458Z,50.73
2019-02-02T07:18:31.387Z,41.77
2019-02-02T07:21:01.385Z,56.70
2019-02-02T07:23:32.971Z,45.13
2019-02-02T07:26:02.840Z,54.63
2019-02-02T07:28:40.407Z,49.13
2019-02-02T07:31:10.753Z,50.67
2019-02-02T07:33:42.866Z,62.03
2019-02-02T07:36:12.789Z,55.23
2019-02-02T07:38:44.617Z,49.90
2019-02-02T07:41:20.264Z,43.67
2019-02-02T07:43:55.165Z,43.70
2019-02-02T07:46:29.820Z,56.33
2019-02-02T07:49:04.523Z,47.73
2019-02-02T07:51:34.369Z,57.03
2019-02-02T07:54:05.065Z,54.57
2019-02-02T07:56:35.180Z,50.07
2019-02-02T07:59:05.564Z,51.97
2019-02-02T08:01:39.307Z,51.87
2019-02-02T08:04:09.529Z,54.00
2019-02-02T08:06:41.228Z,54.23
2019-02-02T08:09:11.368Z,48.47
2019-02-02T08:11:41.310Z,43.33
2019-02-02T08:14:11.668Z,55.17
2019-02-02T08:16:43.439Z,46.93
2019-02-02T08:19:13.391Z,50.53
2019-02-02T08:21:43.853Z,50.00
2019-02-02T08:24:15.771Z,44.63
2019-02-02T08:26:46.018Z,46.07
2019-02-02T08:29:16.624Z,47.13
2019-02-02T08:31:48.634Z,52.27
2019-02-02T08:34:18.768Z,43.97
2019-02-02T08:36:48.701Z,44.13
2019-02-02T08:39:28.948Z,39.40
2019-02-02T08:41:52.443Z,45.80
2019-02-02T08:44:22.797Z,44.03
2019-02-02T08:46:53.054Z,38.67
2019-02-02T08:49:23.271Z,43.90
2019-02-02T08:51:56.703Z,42.67
2019-02-02T08:54:29.960Z,41.10
2019-02-02T08:57:00.206Z,47.90
2019-02-02T08:59:32.187Z,51.53
2019-02-02T09:02:02.244Z,58.70
2019-02-02T09:04:37.830Z,48.50
2019-02-02T09:07:09.658Z,47.43
2019-02-02T09:09:39.927Z,51.53
2019-02-02T09:12:17.654Z,45.43
2019-02-02T09:14:47.633Z,45.33
2019-02-02T09:17:58.363Z,45.67
2019-02-02T09:20:30.358Z,37.00
2019-02-02T09:23:17.138Z,48.03
2019-02-02T09:25:47.768Z,48.93
2019-02-02T09:28:18.540Z,48.10
2019-02-02T09:30:48.625Z,42.03
2019-02-02T09:33:18.836Z,37.60
2019-02-02T09:35:49.115Z,47.33
2019-02-02T09:38:27.022Z,43.00
2019-02-02T09:40:57.578Z,67.13
2019-02-02T09:43:27.812Z,53.83
2019-02-02T09:46:04.783Z,42.23
2019-02-02T09:48:36.507Z,49.60
2019-02-02T09:51:11.918Z,47.57
2019-02-02T09:53:43.039Z,42.77
2019-02-02T09:56:13.092Z,38.63
2019-02-02T09:58:43.512Z,40.43
2019-02-02T10:01:27.569Z,48.37
2019-02-02T10:03:50.394Z,40.47
2019-02-02T10:06:31.282Z,38.90
2019-02-02T10:09:05.957Z,42.23
2019-02-02T10:11:39.328Z,41.67
2019-02-02T10:14:19.434Z,45.20
2019-02-02T10:16:56.900Z,43.87
2019-02-02T10:19:32.190Z,42.73
2019-02-02T10:22:02.407Z,50.67
2019-02-02T10:24:39.537Z,44.23
2019-02-02T10:27:09.847Z,47.37
2019-02-02T10:29:43.138Z,45.37
2019-02-02T10:32:15.775Z,37.30
2019-02-02T10:34:46.148Z,50.23
2019-02-02T10:41:17.546Z,43.00
2019-02-02T10:43:48.324Z,43.73
2019-02-02T10:46:19.163Z,39.30
2019-02-02T10:48:52.678Z,48.90
2019-02-02T10:51:34.888Z,48.30
2019-02-02T10:54:18.101Z,43.30
2019-02-02T10:56:53.107Z,39.60
2019-02-02T10:59:28.337Z,47.03
2019-02-02T11:02:02.953Z,54.37
2019-02-02T11:04:39.488Z,45.50
2019-02-02T11:07:12.248Z,45.30
2019-02-02T11:09:43.127Z,50.27
2019-02-02T11:12:18.284Z,52.47
2019-02-02T11:14:50.132Z,41.83
2019-02-02T11:17:30.549Z,54.63
2019-02-02T11:20:01.932Z,51.73
2019-02-02T11:22:34.991Z,42.90
2019-02-02T11:29:27.485Z,48.07
2019-02-02T11:32:14.410Z,45.27
2019-02-02T11:35:25.479Z,42.33
2019-02-02T11:38:22.577Z,39.70
2019-02-02T11:46:01.732Z,48.53
2019-02-02T11:51:26.599Z,50.83
2019-02-02T11:53:57.528Z,43.53
2019-02-02T11:56:30.797Z,52.77
2019-02-02T11:59:17.374Z,62.23
2019-02-02T12:01:36.188Z,43.60
2019-02-02T12:04:08.562Z,56.20
2019-02-02T12:06:38.516Z,52.07
2019-02-02T12:09:09.213Z,47.33
2019-02-02T12:11:39.795Z,43.40
2019-02-02T12:14:11.085Z,48.93
2019-02-02T12:16:48.117Z,56.80
2019-02-02T12:19:22.548Z,43.97
2019-02-02T12:21:52.442Z,49.17
2019-02-02T12:24:30.975Z,56.53
2019-02-02T12:27:08.438Z,59.13
2019-02-02T12:29:44.468Z,55.40
2019-02-02T12:32:26.308Z,52.67
2019-02-02T12:34:48.252Z,54.47
2019-02-02T12:37:18.336Z,64.00
2019-02-02T12:39:48.110Z,50.97
2019-02-02T12:42:20.402Z,59.63
2019-02-02T12:44:52.698Z,55.43
2019-02-02T12:47:22.587Z,59.57
2019-02-02T12:49:52.781Z,59.83
2019-02-02T12:52:25.494Z,54.30
2019-02-02T12:54:58.743Z,67.90
2019-02-02T12:57:30.453Z,57.00
2019-02-02T13:00:01.470Z,55.57
2019-02-02T13:02:43.348Z,62.07
2019-02-02T13:05:16.020Z,62.00
2019-02-02T13:07:49.181Z,67.33
2019-02-02T13:10:24.393Z,56.77
2019-02-02T13:12:53.466Z,61.77
2019-02-02T13:15:25.196Z,63.20
2019-02-02T13:17:58.350Z,58.87
2019-02-02T13:20:28.397Z,67.40
2019-02-02T13:23:00.211Z,71.07
2019-02-02T13:25:30.102Z,63.17
2019-02-02T13:28:00.065Z,72.63
2019-02-02T13:30:34.844Z,71.10
2019-02-02T13:33:08.541Z,69.17
2019-02-02T13:35:41.498Z,66.03
2019-02-02T13:38:11.300Z,67.63
2019-02-02T13:40:41.172Z,63.23
2019-02-02T13:43:14.154Z,69.27
2019-02-02T13:45:46.827Z,58.83
2019-02-02T13:48:16.622Z,60.90
2019-02-02T13:50:53.298Z,73.40
2019-02-02T13:53:51.692Z,74.17
2019-02-02T13:56:27.831Z,59.10
2019-02-02T13:58:59.254Z,66.93
2019-02-02T14:01:29.369Z,68.03
2019-02-02T14:04:01.297Z,70.90
2019-02-02T14:06:35.287Z,64.07
2019-02-02T14:09:07.919Z,74.67
2019-02-02T14:11:40.910Z,67.57
2019-02-02T14:14:10.932Z,75.37
2019-02-02T14:16:42.052Z,65.70
2019-02-02T14:19:16.326Z,69.53
2019-02-02T14:21:59.363Z,68.83
2019-02-02T14:24:29.744Z,74.33
2019-02-02T14:27:03.738Z,61.27
2019-02-02T14:29:33.914Z,69.67
2019-02-02T14:32:09.475Z,68.70
2019-02-02T14:34:40.541Z,59.37
2019-02-02T14:37:10.655Z,70.33
2019-02-02T14:39:44.023Z,69.93
2019-02-02T14:42:18.212Z,69.00
2019-02-02T14:45:18.646Z,66.90
2019-02-02T14:47:51.791Z,76.13
2019-02-02T14:50:32.335Z,71.00
2019-02-02T14:53:03.756Z,78.57
2019-02-02T14:55:35.998Z,76.73
2019-02-02T14:58:11.658Z,76.47
2019-02-02T15:00:49.368Z,77.40
2019-02-02T15:03:25.821Z,85.47
2019-02-02T15:05:52.368Z,79.90
2019-02-02T15:08:27.115Z,90.83
2019-02-02T15:10:59.391Z,74.27
2019-02-02T15:13:30.701Z,76.00
2019-02-02T15:16:08.879Z,73.70
2019-02-02T15:18:43.766Z,90.07
2019-02-02T15:21:32.118Z,73.60
2019-02-02T15:24:05.760Z,86.70
2019-02-02T15:26:35.667Z,94.17
2019-02-02T15:29:07.390Z,78.23
2019-02-02T15:31:42.350Z,101.77
2019-02-02T15:34:12.882Z,82.90
2019-02-02T15:36:42.954Z,87.63
2019-02-02T15:39:15.669Z,81.33
2019-02-02T15:41:53.111Z,99.83
2019-02-02T15:44:22.012Z,76.70
2019-02-02T15:46:54.379Z,83.67
2019-02-02T15:49:31.488Z,105.43
2019-02-02T15:52:01.108Z,98.90
2019-02-02T15:54:40.083Z,75.43
2019-02-02T15:57:16.071Z,87.23
2019-02-02T15:59:52.808Z,94.37
2019-02-02T16:02:22.709Z,114.07
2019-02-02T16:04:54.569Z,89.20
2019-02-02T16:07:36.087Z,92.33
2019-02-02T16:10:10.335Z,97.33
2019-02-02T16:13:07.810Z,108.07
2019-02-02T16:15:56.752Z,95.37
2019-02-02T16:18:35.997Z,129.83
2019-02-02T16:21:17.760Z,129.40
2019-02-02T16:24:13.874Z,124.67
2019-02-02T16:26:48.584Z,104.67
2019-02-02T16:29:16.837Z,114.30
2019-02-02T16:31:49.392Z,123.13
2019-02-02T16:34:33.730Z,121.33
2019-02-02T16:37:08.894Z,111.17
2019-02-02T16:39:50.343Z,114.23
2019-02-02T16:42:18.687Z,115.13
2019-02-02T16:44:58.462Z,115.20
2019-02-02T16:47:29.868Z,104.50
2019-02-02T16:49:59.707Z,108.13
2019-02-02T16:52:31.640Z,100.23
2019-02-02T16:55:03.786Z,95.70
2019-02-02T16:57:44.493Z,94.10
2019-02-02T17:00:22.765Z,115.90
2019-02-02T17:02:55.756Z,100.53
2019-02-02T17:05:27.336Z,91.90
2019-02-02T17:08:03.190Z,74.40
2019-02-02T17:10:35.267Z,94.37
2019-02-02T17:13:06.094Z,105.73
2019-02-02T17:15:38.692Z,92.67
2019-02-02T17:18:08.648Z,93.17
2019-02-02T17:20:40.880Z,102.87
2019-02-02T17:23:12.899Z,80.87
2019-02-02T17:25:45.140Z,83.50
2019-02-02T17:28:15.575Z,78.13
2019-02-02T17:30:46.381Z,84.03
2019-02-02T17:33:17.280Z,79.10
2019-02-02T17:35:50.536Z,92.87
2019-02-02T17:38:20.421Z,98.57
2019-02-02T17:40:50.906Z,97.43
2019-02-02T17:43:20.790Z,95.00
2019-02-02T17:45:52.076Z,86.30
2019-02-02T17:48:29.014Z,59.20
2019-02-02T17:51:02.050Z,73.67
2019-02-02T17:53:32.079Z,73.70
2019-02-02T17:56:06.050Z,64.70
2019-02-02T17:58:39.734Z,58.33
2019-02-02T18:01:16.361Z,58.73
2019-02-02T18:03:46.461Z,65.03
2019-02-02T18:06:20.831Z,62.77
2019-02-02T18:08:58.421Z,62.83
2019-02-02T18:11:36.296Z,65.00
2019-02-02T18:14:21.805Z,78.00
2019-02-02T18:16:52.052Z,61.97
2019-02-02T18:19:23.292Z,84.53
2019-02-02T18:21:56.722Z,69.07
2019-02-02T18:24:26.539Z,62.90
2019-02-02T18:26:58.446Z,78.97
2019-02-02T18:29:29.010Z,54.67
2019-02-02T18:32:12.857Z,53.83
2019-02-02T18:34:34.731Z,74.43
2019-02-02T18:37:04.946Z,76.70
2019-02-02T18:39:35.996Z,88.87
2019-02-02T18:42:06.344Z,91.57
2019-02-02T18:44:42.430Z,88.40
2019-02-02T18:47:13.939Z,91.03
2019-02-02T18:49:46.755Z,86.07
2019-02-02T18:52:26.460Z,61.13
2019-02-02T18:55:04.025Z,70.53
2019-02-02T18:57:46.055Z,88.70
2019-02-02T19:00:23.831Z,69.93
2019-02-02T19:02:59.646Z,64.13
2019-02-02T19:05:34.293Z,79.43
2019-02-02T19:08:05.458Z,76.30
2019-02-02T19:10:40.448Z,78.43
2019-02-02T19:13:10.940Z,72.33
2019-02-02T19:15:43.567Z,84.87
2019-02-02T19:18:13.573Z,95.13
2019-02-02T19:20:52.027Z,83.73
2019-02-02T19:23:25.134Z,88.03
2019-02-02T19:25:53.926Z,106.13
2019-02-02T19:28:26.615Z,95.37
2019-02-02T19:30:59.363Z,83.93
2019-02-02T19:33:33.526Z,102.50
2019-02-02T19:36:10.304Z,92.53
2019-02-02T19:38:43.661Z,77.90
2019-02-02T19:41:21.799Z,93.40
2019-02-02T19:43:51.741Z,90.10
2019-02-02T19:46:34.335Z,79.80
2019-02-02T19:49:12.909Z,91.33
2019-02-02T19:51:48.547Z,82.97
2019-02-02T19:54:26.491Z,93.83
2019-02-02T19:57:14.412Z,91.47
2019-02-02T19:59:46.487Z,75.53
2019-02-02T20:02:18.420Z,89.47
2019-02-02T20:04:51.515Z,86.43
2019-02-02T20:07:23.591Z,92.27
2019-02-02T20:09:54.116Z,85.67
2019-02-02T20:12:24.986Z,77.53
2019-02-02T20:14:54.997Z,85.13
2019-02-02T20:17:29.874Z,78.57
2019-02-02T20:20:02.051Z,85.73
2019-02-02T20:22:55.628Z,66.87
2019-02-02T20:29:25.781Z,94.63
2019-02-02T20:32:11.355Z,113.30
2019-02-02T20:35:04.347Z,86.07
2019-02-02T20:37:56.357Z,70.13
2019-02-02T20:40:36.753Z,81.77
2019-02-02T20:44:02.354Z,83.53
2019-02-02T20:47:05.173Z,89.07
2019-02-02T20:50:18.383Z,80.03
2019-02-02T20:53:44.467Z,86.23
2019-02-02T20:56:31.795Z,87.97
2019-02-02T21:00:10.491Z,76.57
2019-02-02T21:03:19.768Z,97.63
2019-02-02T21:05:59.199Z,73.40
2019-02-02T21:08:45.069Z,53.07
2019-02-02T21:11:22.379Z,79.43
2019-02-02T21:14:02.885Z,71.30
2019-02-02T21:18:26.258Z,68.03
2019-02-02T21:19:35.954Z,63.83
2019-02-02T21:23:08.935Z,82.23
2019-02-02T21:27:55.633Z,83.83
2019-02-02T21:30:33.918Z,86.33
2019-02-02T21:33:44.183Z,97.33
2019-02-02T21:59:40.875Z,84.20
2019-02-02T22:04:26.398Z,118.10
2019-02-02T22:09:21.036Z,80.07
2019-02-02T22:12:39.741Z,98.33
2019-02-02T22:33:35.525Z,98.63
2019-02-02T22:57:44.049Z,100.53
2019-02-02T23:00:35.988Z,131.17
2019-02-02T23:03:09.412Z,113.27
2019-02-02T23:06:03.365Z,95.90
2019-02-02T23:09:11.235Z,111.77
2019-02-02T23:12:07.565Z,101.40
2019-02-02T23:15:00.760Z,96.73
2019-02-02T23:17:34.012Z,110.63
2019-02-02T23:20:05.868Z,121.70
2019-02-02T23:22:40.132Z,102.40
2019-02-02T23:25:09.836Z,97.70
2019-02-02T23:27:39.913Z,108.63
2019-02-02T23:30:12.884Z,107.13
2019-02-02T23:32:45.598Z,117.77
2019-02-02T23:35:16.185Z,79.43
2019-02-02T23:37:49.291Z,107.10
2019-02-02T23:40:19.458Z,94.90
2019-02-02T23:42:50.543Z,74.97
2019-02-02T23:45:24.133Z,82.93
2019-02-02T23:47:56.075Z,104.47
2019-02-02T23:50:28.414Z,99.50
2019-02-02T23:52:59.027Z,81.97
2019-02-02T23:55:33.992Z,107.60
2019-02-02T23:58:04.169Z,113.53
